createdAt,value
2019-03-27T00:00:36.062Z,101913.08
2019-03-27T00:01:41.815Z,101911.70
2019-03-27T00:02:47.620Z,101911.19
2019-03-27T00:03:53.396Z,101915.89
2019-03-27T00:05:00.311Z,101918.81
2019-03-27T00:06:06.051Z,101910.50
2019-03-27T00:07:11.935Z,101913.39
2019-03-27T00:08:17.673Z,101916.42
2019-03-27T00:09:23.456Z,101909.41
2019-03-27T00:10:29.281Z,101912.92
2019-03-27T00:11:36.943Z,101919.42
2019-03-27T00:12:42.835Z,101915.41
2019-03-27T00:13:48.564Z,101913.71
2019-03-27T00:14:55.444Z,101913.20
2019-03-27T00:16:01.349Z,101914.50
2019-03-27T00:17:07.052Z,101915.41
2019-03-27T00:18:12.794Z,101921.01
2019-03-27T00:19:18.584Z,101921.01
2019-03-27T00:20:24.409Z,101914.50
2019-03-27T00:21:30.115Z,101918.41
2019-03-27T00:22:37.987Z,101915.01
2019-03-27T00:23:44.858Z,101920.22
2019-03-27T00:24:50.622Z,101916.82
2019-03-27T00:25:56.423Z,101917.72
2019-03-27T00:27:02.212Z,101916.89
2019-03-27T00:28:07.959Z,101921.30
2019-03-27T00:29:13.695Z,101928.13
2019-03-27T00:30:19.467Z,101929.83
2019-03-27T00:31:26.420Z,101925.92
2019-03-27T00:32:32.321Z,101935.11
2019-03-27T00:33:38.064Z,101937.42
2019-03-27T00:34:43.859Z,101935.11
2019-03-27T00:35:49.605Z,101937.63
2019-03-27T00:36:55.376Z,101939.73
2019-03-27T00:38:01.081Z,101944.72
2019-03-27T00:39:08.359Z,101945.23
2019-03-27T00:40:14.095Z,101943.02
2019-03-27T00:41:19.834Z,101940.42
2019-03-27T00:42:26.962Z,101943.42
2019-03-27T00:43:32.703Z,101939.41
2019-03-27T00:44:38.452Z,101937.82
2019-03-27T00:45:44.230Z,101935.33
2019-03-27T00:46:50.017Z,101937.42
2019-03-27T00:47:55.779Z,101933.52
2019-03-27T00:49:01.523Z,101940.31
2019-03-27T00:50:11.174Z,101931.53
2019-03-27T00:51:16.971Z,101934.81
2019-03-27T00:52:22.717Z,101930.13
2019-03-27T00:53:28.457Z,101934.33
2019-03-27T00:54:35.983Z,101934.25
2019-03-27T00:55:42.007Z,101942.33
2019-03-27T00:56:47.868Z,101940.24
2019-03-27T00:57:53.652Z,101946.95
2019-03-27T00:58:59.366Z,101941.13
2019-03-27T01:00:12.483Z,101939.31
2019-03-27T01:01:18.369Z,101937.32
2019-03-27T01:02:24.171Z,101950.45
2019-03-27T01:03:29.971Z,101944.12
2019-03-27T01:04:36.923Z,101941.05
2019-03-27T01:05:43.884Z,101940.22
2019-03-27T01:06:51.150Z,101947.44
2019-03-27T01:07:57.073Z,101943.42
2019-03-27T01:09:02.841Z,101951.02
2019-03-27T01:10:10.227Z,101951.54
2019-03-27T01:11:16.003Z,101950.62
2019-03-27T01:12:21.753Z,101948.31
2019-03-27T01:13:27.467Z,101950.23
2019-03-27T01:14:34.015Z,101957.64
2019-03-27T01:15:40.399Z,101961.12
2019-03-27T01:16:46.164Z,101965.73
2019-03-27T01:17:51.885Z,101965.61
2019-03-27T01:18:58.816Z,101965.19
2019-03-27T01:20:06.797Z,101972.59
2019-03-27T01:21:14.965Z,101975.67
2019-03-27T01:22:20.771Z,101968.67
2019-03-27T01:23:26.980Z,101973.47
2019-03-27T01:24:33.654Z,101971.81
2019-03-27T01:25:39.476Z,101960.59
2019-03-27T01:26:46.453Z,101966.49
2019-03-27T01:27:52.235Z,101963.58
2019-03-27T01:28:59.084Z,101964.77
2019-03-27T01:30:06.630Z,101967.68
2019-03-27T01:31:12.405Z,101967.68
2019-03-27T01:32:18.191Z,101963.98
2019-03-27T01:33:23.954Z,101965.59
2019-03-27T01:34:29.659Z,101970.88
2019-03-27T01:35:35.476Z,101965.16
2019-03-27T01:36:41.236Z,101963.47
2019-03-27T01:37:46.968Z,101964.38
2019-03-27T01:38:52.692Z,101957.09
2019-03-27T01:39:58.439Z,101962.80
2019-03-27T01:41:04.161Z,101965.79
2019-03-27T01:42:09.852Z,101966.09
2019-03-27T01:43:15.676Z,101969.37
2019-03-27T01:44:21.409Z,101967.59
2019-03-27T01:45:27.171Z,101975.39
2019-03-27T01:46:34.145Z,101979.77
2019-03-27T01:47:41.115Z,101972.56
2019-03-27T01:48:47.354Z,101973.66
2019-03-27T01:49:53.113Z,101979.66
2019-03-27T01:50:58.992Z,101978.27
2019-03-27T01:52:08.145Z,101975.16
2019-03-27T01:53:14.077Z,101978.95
2019-03-27T01:54:19.815Z,101979.02
2019-03-27T01:55:25.536Z,101978.83
2019-03-27T01:56:31.268Z,101983.11
2019-03-27T01:57:37.089Z,101979.41
2019-03-27T01:58:42.869Z,101981.63
2019-03-27T01:59:50.140Z,101990.59
2019-03-27T02:00:55.964Z,101986.19
2019-03-27T02:02:01.688Z,101990.20
2019-03-27T02:03:12.897Z,101982.29
2019-03-27T02:04:18.611Z,101987.91
2019-03-27T02:05:24.562Z,101978.51
2019-03-27T02:06:30.234Z,101981.22
2019-03-27T02:07:37.356Z,101984.53
2019-03-27T02:08:43.112Z,101984.22
2019-03-27T02:09:48.854Z,101986.03
2019-03-27T02:10:54.647Z,101978.23
2019-03-27T02:12:00.422Z,101977.45
2019-03-27T02:13:06.264Z,101978.63
2019-03-27T02:14:12.068Z,101974.14
2019-03-27T02:15:19.074Z,101982.72
2019-03-27T02:16:24.754Z,101984.14
2019-03-27T02:17:30.453Z,101981.74
2019-03-27T02:18:36.220Z,101981.03
2019-03-27T02:19:42.067Z,101978.04
2019-03-27T02:20:48.399Z,101981.55
2019-03-27T02:21:54.232Z,101983.55
2019-03-27T02:23:00.046Z,101974.73
2019-03-27T02:24:05.782Z,101983.31
2019-03-27T02:25:11.525Z,101979.14
2019-03-27T02:26:18.640Z,101975.64
2019-03-27T02:27:25.663Z,101979.34
2019-03-27T02:28:31.451Z,101982.21
2019-03-27T02:29:37.150Z,101983.91
2019-03-27T02:30:42.936Z,101976.11
2019-03-27T02:31:48.617Z,101979.34
2019-03-27T02:32:54.386Z,101975.13
2019-03-27T02:34:00.227Z,101978.94
2019-03-27T02:35:06.589Z,101980.13
2019-03-27T02:36:12.371Z,101976.73
2019-03-27T02:37:19.644Z,101982.33
2019-03-27T02:38:25.556Z,101971.03
2019-03-27T02:39:31.282Z,101969.84
2019-03-27T02:40:37.142Z,101965.56
2019-03-27T02:41:44.311Z,101968.16
2019-03-27T02:42:50.276Z,101975.05
2019-03-27T02:43:56.010Z,101973.52
2019-03-27T02:45:01.740Z,101974.02
2019-03-27T02:46:23.382Z,101974.92
2019-03-27T02:47:15.000Z,101972.45
2019-03-27T02:48:20.701Z,101976.55
2019-03-27T02:49:26.521Z,101976.73
2019-03-27T02:50:32.238Z,101978.70
2019-03-27T02:51:37.982Z,101985.52
2019-03-27T02:52:43.725Z,101979.09
2019-03-27T02:53:50.327Z,101982.87
2019-03-27T02:54:56.064Z,101987.59
2019-03-27T02:56:01.812Z,101997.08
2019-03-27T02:57:07.599Z,101989.69
2019-03-27T02:58:13.382Z,101992.08
2019-03-27T02:59:19.067Z,101995.46
2019-03-27T03:00:24.866Z,101994.44
2019-03-27T03:01:30.806Z,101990.85
2019-03-27T03:02:37.906Z,101996.25
2019-03-27T03:03:43.744Z,101984.44
2019-03-27T03:04:49.536Z,101994.42
2019-03-27T03:05:55.330Z,101986.72
2019-03-27T03:07:01.102Z,101995.33
2019-03-27T03:08:07.997Z,101994.42
2019-03-27T03:09:13.753Z,101995.61
2019-03-27T03:10:20.760Z,101986.44
2019-03-27T03:11:27.738Z,101992.92
2019-03-27T03:12:33.533Z,101988.39
2019-03-27T03:13:39.270Z,101992.76
2019-03-27T03:14:44.984Z,101991.25
2019-03-27T03:15:50.856Z,101987.48
2019-03-27T03:16:58.660Z,101987.75
2019-03-27T03:18:04.396Z,101995.45
2019-03-27T03:19:10.672Z,101990.41
2019-03-27T03:20:16.439Z,101988.80
2019-03-27T03:21:22.159Z,101987.02
2019-03-27T03:22:27.948Z,101988.31
2019-03-27T03:23:33.635Z,101991.81
2019-03-27T03:24:39.350Z,101987.10
2019-03-27T03:25:45.108Z,101992.21
2019-03-27T03:26:51.643Z,101992.21
2019-03-27T03:27:58.555Z,101988.31
2019-03-27T03:29:04.259Z,101991.97
2019-03-27T03:30:11.706Z,101997.16
2019-03-27T03:31:17.498Z,101986.18
2019-03-27T03:32:23.198Z,101987.87
2019-03-27T03:33:28.924Z,101987.16
2019-03-27T03:34:34.683Z,101983.38
2019-03-27T03:35:41.188Z,101988.33
2019-03-27T03:36:46.937Z,101989.93
2019-03-27T03:37:52.651Z,101990.20
2019-03-27T03:38:59.562Z,101996.21
2019-03-27T03:40:09.149Z,101992.92
2019-03-27T03:41:14.874Z,101993.62
2019-03-27T03:42:21.861Z,102006.29
2019-03-27T03:43:27.684Z,102003.69
2019-03-27T03:44:34.238Z,102005.69
2019-03-27T03:45:40.425Z,102007.77
2019-03-27T03:46:58.838Z,102012.45
2019-03-27T03:47:53.626Z,102014.44
2019-03-27T03:48:59.327Z,102009.00
2019-03-27T03:50:07.829Z,102017.22
2019-03-27T03:51:13.541Z,102011.21
2019-03-27T03:52:20.475Z,102020.69
2019-03-27T03:53:27.034Z,102019.69
2019-03-27T03:54:32.748Z,102021.17
2019-03-27T03:55:40.082Z,102022.52
2019-03-27T03:56:45.778Z,102020.50
2019-03-27T03:57:51.544Z,102018.69
2019-03-27T03:58:59.431Z,102020.37
2019-03-27T04:00:07.159Z,102017.84
2019-03-27T04:01:13.297Z,102022.30
2019-03-27T04:02:19.022Z,102026.58
2019-03-27T04:03:27.018Z,102027.53
2019-03-27T04:04:32.761Z,102032.00
2019-03-27T04:05:39.613Z,102038.27
2019-03-27T04:06:45.352Z,102034.03
2019-03-27T04:07:51.064Z,102032.61
2019-03-27T04:08:56.838Z,102034.33
2019-03-27T04:10:02.563Z,102035.50
2019-03-27T04:11:09.898Z,102029.41
2019-03-27T04:12:15.817Z,102039.91
2019-03-27T04:13:21.512Z,102030.66
2019-03-27T04:14:27.248Z,102031.95
2019-03-27T04:15:34.043Z,102032.52
2019-03-27T04:16:39.754Z,102031.22
2019-03-27T04:17:45.539Z,102038.31
2019-03-27T04:18:51.238Z,102043.75
2019-03-27T04:19:56.943Z,102034.77
2019-03-27T04:21:02.651Z,102037.14
2019-03-27T04:22:08.390Z,102035.38
2019-03-27T04:23:14.138Z,102041.64
2019-03-27T04:24:19.853Z,102046.44
2019-03-27T04:25:27.665Z,102046.56
2019-03-27T04:26:35.081Z,102047.86
2019-03-27T04:27:40.829Z,102055.56
2019-03-27T04:28:46.614Z,102053.22
2019-03-27T04:29:52.370Z,102057.20
2019-03-27T04:30:58.091Z,102050.06
2019-03-27T04:32:05.151Z,102051.23
2019-03-27T04:33:10.918Z,102056.63
2019-03-27T04:34:16.672Z,102051.36
2019-03-27T04:35:22.502Z,102049.55
2019-03-27T04:36:28.185Z,102054.04
2019-03-27T04:37:33.948Z,102053.26
2019-03-27T04:38:40.961Z,102055.85
2019-03-27T04:39:46.676Z,102056.63
2019-03-27T04:40:52.421Z,102053.05
2019-03-27T04:41:59.757Z,102058.74
2019-03-27T04:43:05.473Z,102062.51
2019-03-27T04:44:11.211Z,102061.22
2019-03-27T04:45:17.433Z,102071.15
2019-03-27T04:46:23.231Z,102075.82
2019-03-27T04:47:32.384Z,102072.53
2019-03-27T04:48:37.682Z,102080.10
2019-03-27T04:49:44.104Z,102080.67
2019-03-27T04:50:50.698Z,102078.80
2019-03-27T04:51:56.439Z,102083.03
2019-03-27T04:53:04.108Z,102085.67
2019-03-27T04:54:09.878Z,102079.19
2019-03-27T04:55:15.584Z,102087.61
2019-03-27T04:56:23.005Z,102082.42
2019-03-27T04:57:28.897Z,102084.84
2019-03-27T04:58:34.730Z,102091.06
2019-03-27T04:59:40.476Z,102077.79
2019-03-27T05:00:46.228Z,102080.12
2019-03-27T05:01:52.095Z,102090.89
2019-03-27T05:02:57.924Z,102088.81
2019-03-27T05:04:04.151Z,102089.98
2019-03-27T05:05:10.569Z,102092.40
2019-03-27T05:06:16.378Z,102094.81
2019-03-27T05:07:22.151Z,102087.67
2019-03-27T05:08:27.958Z,102087.28
2019-03-27T05:09:34.287Z,102094.59
2019-03-27T05:10:41.306Z,102085.50
2019-03-27T05:11:48.482Z,102083.37
2019-03-27T05:12:54.296Z,102088.98
2019-03-27T05:14:00.000Z,102078.45
2019-03-27T05:15:07.922Z,102085.76
2019-03-27T05:16:13.674Z,102078.42
2019-03-27T05:17:19.373Z,102079.66
2019-03-27T05:18:26.792Z,102076.18
2019-03-27T05:19:32.546Z,102077.20
2019-03-27T05:20:39.642Z,102072.73
2019-03-27T05:21:45.613Z,102068.53
2019-03-27T05:22:51.428Z,102067.87
2019-03-27T05:23:57.180Z,102069.49
2019-03-27T05:25:02.973Z,102063.20
2019-03-27T05:26:08.740Z,102061.95
2019-03-27T05:27:14.624Z,102061.27
2019-03-27T05:28:20.401Z,102061.63
2019-03-27T05:29:28.940Z,102062.91
2019-03-27T05:30:34.711Z,102063.88
2019-03-27T05:31:41.790Z,102057.81
2019-03-27T05:32:54.872Z,102054.72
2019-03-27T05:34:00.840Z,102047.26
2019-03-27T05:35:07.878Z,102065.86
2019-03-27T05:36:13.586Z,102060.87
2019-03-27T05:37:19.305Z,102054.83
2019-03-27T05:38:25.064Z,102052.58
2019-03-27T05:39:31.667Z,102055.36
2019-03-27T05:40:37.473Z,102046.78
2019-03-27T05:42:16.327Z,102041.62
2019-03-27T05:43:30.530Z,102039.08
2019-03-27T05:44:37.136Z,102032.80
2019-03-27T05:45:43.031Z,102027.73
2019-03-27T05:46:48.747Z,102029.66
2019-03-27T05:47:59.789Z,102035.36
2019-03-27T05:49:01.840Z,102030.45
2019-03-27T05:50:07.597Z,102030.23
2019-03-27T05:51:13.369Z,102025.10
2019-03-27T05:52:20.179Z,102030.37
2019-03-27T05:53:35.524Z,102026.31
2019-03-27T05:54:44.620Z,102029.14
2019-03-27T05:55:50.547Z,102030.47
2019-03-27T05:56:56.292Z,102031.31
2019-03-27T05:58:03.076Z,102028.18
2019-03-27T05:59:09.129Z,102028.69
2019-03-27T06:00:16.615Z,102029.07
2019-03-27T06:01:22.720Z,102032.63
2019-03-27T06:02:28.792Z,102031.98
2019-03-27T06:03:34.530Z,102032.30
2019-03-27T06:04:40.298Z,102030.48
2019-03-27T06:05:47.688Z,102028.91
2019-03-27T06:06:53.409Z,102030.09
2019-03-27T06:07:59.201Z,102030.14
2019-03-27T06:09:06.270Z,102022.08
2019-03-27T06:10:12.188Z,102022.05
2019-03-27T06:11:18.466Z,102028.67
2019-03-27T06:12:24.212Z,102027.39
2019-03-27T06:13:30.028Z,102025.89
2019-03-27T06:14:35.825Z,102022.90
2019-03-27T06:15:44.894Z,102028.86
2019-03-27T06:16:49.624Z,102030.11
2019-03-27T06:17:56.644Z,102028.69
2019-03-27T06:19:02.778Z,102023.48
2019-03-27T06:20:09.331Z,102027.43
2019-03-27T06:21:15.167Z,102020.70
2019-03-27T06:22:21.151Z,102029.01
2019-03-27T06:23:27.786Z,102031.55
2019-03-27T06:24:33.709Z,102030.03
2019-03-27T06:25:39.423Z,102024.23
2019-03-27T06:26:46.846Z,102030.03
2019-03-27T06:28:07.919Z,102027.10
2019-03-27T06:29:15.887Z,102026.05
2019-03-27T06:30:21.719Z,102028.78
2019-03-27T06:31:27.954Z,102036.92
2019-03-27T06:32:33.876Z,102026.31
2019-03-27T06:33:39.758Z,102010.05
2019-03-27T06:34:45.515Z,102033.00
2019-03-27T06:35:51.693Z,102033.00
2019-03-27T06:36:57.829Z,101998.99
2019-03-27T06:38:04.545Z,102012.95
2019-03-27T06:39:11.049Z,102012.95
2019-03-27T06:40:18.149Z,102033.55
2019-03-27T06:41:26.158Z,102033.55
2019-03-27T06:42:31.864Z,102032.12
2019-03-27T06:43:37.753Z,102026.61
2019-03-27T06:44:43.558Z,102024.39
2019-03-27T06:45:51.896Z,102021.34
2019-03-27T06:46:57.748Z,102026.26
2019-03-27T06:48:03.594Z,101987.78
2019-03-27T06:49:09.355Z,102022.02
2019-03-27T06:50:15.119Z,102014.25
2019-03-27T06:51:20.923Z,102015.12
2019-03-27T06:52:26.731Z,102011.66
2019-03-27T06:53:32.609Z,102019.35
2019-03-27T06:54:40.271Z,102022.02
2019-03-27T06:55:46.437Z,102026.11
2019-03-27T06:56:52.807Z,102013.06
2019-03-27T06:58:00.445Z,102022.80
2019-03-27T06:59:06.240Z,102017.41
2019-03-27T07:00:12.304Z,102016.00
2019-03-27T07:01:18.205Z,102012.79
2019-03-27T07:02:24.306Z,102013.41
2019-03-27T07:03:31.373Z,102018.25
2019-03-27T07:04:38.064Z,102006.89
2019-03-27T07:05:43.862Z,102009.23
2019-03-27T07:06:49.796Z,101999.41
2019-03-27T07:07:56.728Z,102000.34
2019-03-27T07:09:02.551Z,102005.66
2019-03-27T07:10:08.925Z,102001.68
2019-03-27T07:11:22.498Z,102003.47
2019-03-27T07:12:28.367Z,102001.50
2019-03-27T07:13:34.173Z,102017.16
2019-03-27T07:14:40.077Z,102021.72
2019-03-27T07:15:46.055Z,102023.64
2019-03-27T07:16:51.902Z,102022.95
2019-03-27T07:17:57.832Z,102039.62
2019-03-27T07:19:03.704Z,102034.14
2019-03-27T07:20:09.571Z,102034.38
2019-03-27T07:21:16.449Z,102042.77
2019-03-27T07:22:23.372Z,102050.34
2019-03-27T07:23:29.179Z,102054.67
2019-03-27T07:24:34.962Z,102055.81
2019-03-27T07:25:42.593Z,102057.50
2019-03-27T07:26:48.683Z,102056.23
2019-03-27T07:27:54.424Z,102059.22
2019-03-27T07:29:00.344Z,102061.73
2019-03-27T07:30:07.485Z,102063.86
2019-03-27T07:31:13.356Z,102062.61
2019-03-27T07:32:19.081Z,102063.06
2019-03-27T07:33:24.989Z,102059.23
2019-03-27T07:34:30.902Z,102059.64
2019-03-27T07:35:36.713Z,102062.68
2019-03-27T07:36:43.837Z,102060.55
2019-03-27T07:37:49.580Z,102057.47
2019-03-27T07:38:55.503Z,102063.28
2019-03-27T07:40:01.535Z,102063.20
2019-03-27T07:41:07.671Z,102063.20
2019-03-27T07:42:13.595Z,102063.38
2019-03-27T07:43:19.377Z,102071.09
2019-03-27T07:44:25.147Z,102071.98
2019-03-27T07:45:32.508Z,102071.41
2019-03-27T07:46:39.644Z,102074.01
2019-03-27T07:47:48.147Z,102076.34
2019-03-27T07:48:54.460Z,102074.03
2019-03-27T07:50:01.599Z,102076.30
2019-03-27T07:51:07.455Z,102075.99
2019-03-27T07:52:13.184Z,102083.09
2019-03-27T07:53:22.636Z,102080.77
2019-03-27T07:54:28.539Z,102080.59
2019-03-27T07:55:35.493Z,102086.15
2019-03-27T07:56:41.401Z,102087.61
2019-03-27T07:57:47.179Z,102084.08
2019-03-27T07:58:52.991Z,102082.88
2019-03-27T07:59:59.039Z,102080.39
2019-03-27T08:01:04.821Z,102082.62
2019-03-27T08:02:10.883Z,102072.40
2019-03-27T08:03:16.765Z,102086.14
2019-03-27T08:04:22.835Z,102081.83
2019-03-27T08:05:28.766Z,102090.69
2019-03-27T08:06:37.554Z,102082.80
2019-03-27T08:07:43.390Z,102097.45
2019-03-27T08:08:49.293Z,102093.78
2019-03-27T08:09:55.094Z,102092.39
2019-03-27T08:11:01.037Z,102090.66
2019-03-27T08:12:06.894Z,102090.77
2019-03-27T08:13:12.698Z,102096.93
2019-03-27T08:14:18.645Z,102093.63
2019-03-27T08:15:24.457Z,102093.02
2019-03-27T08:16:30.917Z,102093.40
2019-03-27T08:17:37.620Z,102085.25
2019-03-27T08:18:45.255Z,102088.97
2019-03-27T08:19:51.286Z,102085.02
2019-03-27T08:20:57.225Z,102086.00
2019-03-27T08:22:03.291Z,102076.30
2019-03-27T08:23:09.397Z,102073.38
2019-03-27T08:24:15.365Z,102071.16
2019-03-27T08:25:21.185Z,102070.25
2019-03-27T08:26:26.931Z,102073.71
2019-03-27T08:27:32.747Z,102068.04
2019-03-27T08:28:38.831Z,102078.22
2019-03-27T08:29:45.578Z,102068.72
2019-03-27T08:30:52.406Z,102070.44
2019-03-27T08:31:58.324Z,102072.35
2019-03-27T08:33:04.566Z,102073.30
2019-03-27T08:34:10.316Z,102075.69
2019-03-27T08:35:16.115Z,102077.75
2019-03-27T08:36:21.877Z,102075.64
2019-03-27T08:37:27.687Z,102071.70
2019-03-27T08:38:33.475Z,102069.14
2019-03-27T08:39:39.388Z,102071.68
2019-03-27T08:40:45.279Z,102071.11
2019-03-27T08:41:52.760Z,102078.91
2019-03-27T08:42:59.412Z,102075.14
2019-03-27T08:44:05.452Z,102078.39
2019-03-27T08:45:14.319Z,102079.44
2019-03-27T08:46:20.505Z,102083.56
2019-03-27T08:47:26.509Z,102082.62
2019-03-27T08:48:32.382Z,102081.34
2019-03-27T08:49:38.241Z,102080.09
2019-03-27T08:50:44.278Z,102080.89
2019-03-27T08:51:50.235Z,102081.72
2019-03-27T08:52:56.181Z,102082.73
2019-03-27T08:54:02.975Z,102077.05
2019-03-27T08:55:09.235Z,102078.12
2019-03-27T08:56:15.024Z,102076.66
2019-03-27T08:57:20.812Z,102078.56
2019-03-27T08:58:26.605Z,102076.86
2019-03-27T08:59:32.606Z,102080.13
2019-03-27T09:00:54.850Z,102078.73
2019-03-27T09:02:00.668Z,102086.16
2019-03-27T09:03:06.491Z,102090.35
2019-03-27T09:04:12.396Z,102083.56
2019-03-27T09:05:18.242Z,102086.95
2019-03-27T09:06:33.499Z,102092.61
2019-03-27T09:07:31.366Z,102088.86
2019-03-27T09:08:37.248Z,102090.84
2019-03-27T09:09:43.021Z,102092.67
2019-03-27T09:10:48.939Z,102089.27
2019-03-27T09:11:54.691Z,102090.34
2019-03-27T09:13:07.305Z,102093.43
2019-03-27T09:14:13.154Z,102091.45
2019-03-27T09:15:18.932Z,102086.98
2019-03-27T09:16:24.709Z,102094.30
2019-03-27T09:17:30.445Z,102089.86
2019-03-27T09:18:37.495Z,102098.42
2019-03-27T09:19:43.710Z,102092.59
2019-03-27T09:20:49.791Z,102095.23
2019-03-27T09:21:55.858Z,102093.15
2019-03-27T09:23:01.727Z,102098.59
2019-03-27T09:24:07.708Z,102093.10
2019-03-27T09:25:13.647Z,102085.42
2019-03-27T09:26:19.719Z,102073.08
2019-03-27T09:27:25.469Z,102078.10
2019-03-27T09:28:31.491Z,102074.05
2019-03-27T09:29:37.289Z,102080.42
2019-03-27T09:30:43.381Z,102082.25
2019-03-27T09:31:49.369Z,102080.17
2019-03-27T09:32:55.215Z,102076.85
2019-03-27T09:34:01.189Z,102075.20
2019-03-27T09:35:07.113Z,102083.22
2019-03-27T09:36:12.995Z,102074.56
2019-03-27T09:37:18.754Z,102080.83
2019-03-27T09:38:24.665Z,102072.23
2019-03-27T09:39:30.641Z,102076.70
2019-03-27T09:40:36.443Z,102076.92
2019-03-27T09:41:42.300Z,102085.03
2019-03-27T09:42:48.053Z,102083.44
2019-03-27T09:43:54.171Z,102078.67
2019-03-27T09:45:00.102Z,102082.78
2019-03-27T09:46:05.945Z,102076.61
2019-03-27T09:47:11.852Z,102075.38
2019-03-27T09:48:17.675Z,102076.67
2019-03-27T09:49:23.760Z,102071.84
2019-03-27T09:50:29.788Z,102073.80
2019-03-27T09:51:35.845Z,102071.23
2019-03-27T09:52:41.789Z,102074.05
2019-03-27T09:53:47.859Z,102068.67
2019-03-27T09:54:54.034Z,102078.55
2019-03-27T09:55:59.807Z,102078.91
2019-03-27T09:57:05.619Z,102073.59
2019-03-27T09:58:11.609Z,102074.10
2019-03-27T09:59:17.837Z,102072.42
2019-03-27T10:00:49.807Z,102073.33
2019-03-27T10:01:55.867Z,102068.50
2019-03-27T10:03:01.953Z,102071.77
2019-03-27T10:04:07.885Z,102075.45
2019-03-27T10:05:14.748Z,102070.69
2019-03-27T10:06:20.710Z,102070.41
2019-03-27T10:07:26.581Z,102068.88
2019-03-27T10:08:32.464Z,102069.39
2019-03-27T10:09:38.557Z,102075.51
2019-03-27T10:10:44.393Z,102072.51
2019-03-27T10:11:50.421Z,102060.06
2019-03-27T10:12:56.477Z,102061.41
2019-03-27T10:14:02.279Z,102058.34
2019-03-27T10:15:09.155Z,102061.13
2019-03-27T10:16:14.983Z,102060.58
2019-03-27T10:17:20.767Z,102062.24
2019-03-27T10:18:26.535Z,102060.59
2019-03-27T10:19:32.300Z,102061.60
2019-03-27T10:20:38.078Z,102063.14
2019-03-27T10:21:43.936Z,102067.05
2019-03-27T10:22:49.712Z,102067.11
2019-03-27T10:23:55.639Z,102061.95
2019-03-27T10:25:01.475Z,102063.78
2019-03-27T10:26:07.473Z,102053.50
2019-03-27T10:27:13.360Z,102059.66
2019-03-27T10:28:19.189Z,102055.30
2019-03-27T10:29:25.252Z,102061.95
2019-03-27T10:30:31.114Z,102062.80
2019-03-27T10:31:37.027Z,102071.28
2019-03-27T10:32:43.300Z,102055.85
2019-03-27T10:33:49.257Z,102065.50
2019-03-27T10:34:55.125Z,102057.71
2019-03-27T10:36:01.085Z,102056.41
2019-03-27T10:37:06.953Z,102057.84
2019-03-27T10:38:12.727Z,102061.95
2019-03-27T10:39:18.706Z,102066.70
2019-03-27T10:40:24.604Z,102061.75
2019-03-27T10:41:30.441Z,102063.36
2019-03-27T10:42:36.359Z,102064.73
2019-03-27T10:43:42.131Z,102060.48
2019-03-27T10:44:48.022Z,102058.84
2019-03-27T10:45:54.058Z,102064.82
2019-03-27T10:47:00.109Z,102056.58
2019-03-27T10:48:06.161Z,102063.21
2019-03-27T10:49:12.162Z,102061.81
2019-03-27T10:50:18.406Z,102056.89
2019-03-27T10:51:24.310Z,102053.88
2019-03-27T10:52:30.213Z,102050.39
2019-03-27T10:53:37.105Z,102045.24
2019-03-27T10:54:43.105Z,102052.64
2019-03-27T10:55:48.996Z,102055.15
2019-03-27T10:56:54.712Z,102050.89
2019-03-27T10:58:00.564Z,102050.41
2019-03-27T10:59:09.452Z,102049.58
2019-03-27T11:00:15.295Z,102046.29
2019-03-27T11:01:21.061Z,102047.69
2019-03-27T11:02:26.941Z,102045.95
2019-03-27T11:03:33.804Z,102043.06
2019-03-27T11:04:39.652Z,102042.06
2019-03-27T11:05:45.423Z,102032.64
2019-03-27T11:06:51.582Z,102039.38
2019-03-27T11:07:57.516Z,102042.63
